Time;durP1;ratioP1;P1;durP2;ratioP2;P2;SDS_P1;SDS_P2;PMS_P1;PMS_P2;Temp;Humidity;BMP_temperature;BMP_pressure;BME280_temperature;BME280_humidity;BME280_pressure;Samples;Min_cycle;Max_cycle;Signal;HPM_P1;HPM_P2
2023/09/17 00:01:23;;;;;;;11.80;4.30;;;;;;;15.05;75.94;100058.69;109564;1252;58345;-68
2023/09/17 00:04:09;;;;;;;10.80;4.30;;;;;;;15.03;75.89;100059.13;109515;1252;58849;-66
2023/09/17 00:06:56;;;;;;;9.10;4.10;;;;;;;15.01;76.41;100056.83;109286;1252;71788;-68
2023/09/17 00:09:42;;;;;;;10.40;3.90;;;;;;;15.00;76.00;100055.32;109563;1252;67826;-67
2023/09/17 00:12:29;;;;;;;10.00;3.70;;;;;;;14.96;76.09;100059.34;109562;1253;72372;-67
2023/09/17 00:15:15;;;;;;;9.70;3.60;;;;;;;14.93;76.40;100057.17;109567;1252;57625;-67
2023/09/17 00:18:01;;;;;;;9.20;4.00;;;;;;;14.91;77.05;100054.14;109289;1253;61104;-67
2023/09/17 00:20:47;;;;;;;9.50;3.80;;;;;;;14.88;77.20;100050.16;109576;1252;74011;-65
2023/09/17 00:23:33;;;;;;;9.20;4.30;;;;;;;14.91;77.00;100052.70;109457;1253;69159;-66
2023/09/17 00:26:19;;;;;;;12.00;3.90;;;;;;;14.90;77.33;100054.05;109524;1252;72491;-67
2023/09/17 00:29:06;;;;;;;12.70;3.90;;;;;;;14.88;77.28;100056.23;109388;1254;57677;-66
2023/09/17 00:31:53;;;;;;;10.90;4.00;;;;;;;14.86;77.59;100052.56;109567;1253;59156;-67
2023/09/17 00:34:39;;;;;;;10.80;4.30;;;;;;;14.82;77.57;100051.57;109561;1252;71758;-66
2023/09/17 00:37:25;;;;;;;10.00;4.00;;;;;;;14.79;77.54;100055.62;109351;1252;66327;-68
2023/09/17 00:40:12;;;;;;;8.90;4.20;;;;;;;14.76;77.35;100057.91;109224;1252;71476;-67
2023/09/17 00:42:58;;;;;;;8.70;3.50;;;;;;;14.72;77.80;100058.41;109574;1252;57390;-67
2023/09/17 00:45:45;;;;;;;9.20;4.00;;;;;;;14.69;78.09;100057.11;109571;1252;61317;-66
2023/09/17 00:48:31;;;;;;;9.40;4.40;;;;;;;14.65;77.88;100052.68;109594;1252;73989;-66
2023/09/17 00:51:18;;;;;;;9.80;4.30;;;;;;;14.60;78.12;100056.70;109424;1252;68395;-67
2023/09/17 00:54:06;;;;;;;11.00;3.90;;;;;;;14.55;78.33;100052.57;109548;1252;73162;-66
2023/09/17 00:56:52;;;;;;;9.30;4.00;;;;;;;14.49;78.69;100054.13;109553;1252;57959;-67
2023/09/17 00:59:39;;;;;;;9.20;4.20;;;;;;;14.43;79.06;100048.11;109452;1253;59275;-66
2023/09/17 01:02:26;;;;;;;9.20;4.10;;;;;;;14.37;79.53;100046.88;109249;1253;73740;-66
2023/09/17 01:05:13;;;;;;;9.70;4.10;;;;;;;14.34;79.73;100048.11;109434;1252;67858;-67
2023/09/17 01:08:01;;;;;;;8.80;4.00;;;;;;;14.31;80.46;100047.84;109283;1253;72553;-67
2023/09/17 01:10:48;;;;;;;9.70;3.80;;;;;;;14.28;80.60;100044.86;109408;1252;57859;-67
2023/09/17 01:13:51;;;;;;;9.80;4.40;;;;;;;14.26;81.01;100045.75;109460;1252;59097;-66
2023/09/17 01:16:45;;;;;;;10.40;4.50;;;;;;;14.26;81.52;100042.77;109424;1253;73846;-70
2023/09/17 01:19:33;;;;;;;10.60;4.00;;;;;;;14.28;81.55;100040.60;109450;1253;66931;-66
2023/09/17 01:22:34;;;;;;;10.50;3.70;;;;;;;14.30;81.48;100038.95;109542;1252;73416;-68
2023/09/17 01:25:40;;;;;;;10.50;4.40;;;;;;;14.32;81.30;100032.95;109377;1253;57271;-67
2023/09/17 01:28:28;;;;;;;9.90;4.20;;;;;;;14.30;81.28;100033.23;109538;1252;60149;-68
2023/09/17 01:31:15;;;;;;;11.20;4.60;;;;;;;14.29;81.56;100032.98;109393;1252;72972;-67
2023/09/17 01:34:02;;;;;;;12.10;4.90;;;;;;;14.27;82.04;100027.81;109424;1252;68794;-67
2023/09/17 01:36:54;;;;;;;12.30;4.90;;;;;;;14.28;82.27;100028.80;109249;1253;72628;-68
2023/09/17 01:39:47;;;;;;;11.10;4.50;;;;;;;14.29;82.46;100029.05;109384;1252;57635;-70
2023/09/17 01:42:35;;;;;;;11.80;4.60;;;;;;;14.30;82.68;100032.02;109272;1253;58846;-67
2023/09/17 01:45:21;;;;;;;11.30;4.90;;;;;;;14.30;82.85;100030.09;109432;1252;74013;-67
2023/09/17 01:48:08;;;;;;;10.90;4.70;;;;;;;14.30;83.14;100026.41;109550;1252;67915;-67
2023/09/17 01:50:55;;;;;;;9.70;4.20;;;;;;;14.32;82.96;100031.27;109543;1253;72526;-66
2023/09/17 01:53:42;;;;;;;10.70;4.90;;;;;;;14.35;83.44;100026.94;109625;1252;57355;-68
2023/09/17 01:56:28;;;;;;;10.60;4.50;;;;;;;14.37;83.08;100025.48;109472;1254;58779;-70
2023/09/17 01:59:15;;;;;;;11.10;5.10;;;;;;;14.38;83.18;100022.00;109494;1252;73984;-69
2023/09/17 02:02:02;;;;;;;12.50;4.90;;;;;;;14.39;83.08;100023.48;109444;1253;68770;-66
2023/09/17 02:04:49;;;;;;;11.30;4.70;;;;;;;14.41;83.35;100019.05;109409;1254;72485;-68
2023/09/17 02:07:36;;;;;;;10.70;4.70;;;;;;;14.40;83.30;100019.29;109592;1252;57430;-68
2023/09/17 02:10:22;;;;;;;11.80;5.20;;;;;;;14.40;83.42;100018.41;109287;1253;61136;-65
2023/09/17 02:13:09;;;;;;;12.60;5.40;;;;;;;14.40;83.54;100017.71;109469;1252;72531;-67
2023/09/17 02:15:56;;;;;;;11.20;5.10;;;;;;;14.40;83.80;100016.05;109397;1253;67647;-66
2023/09/17 02:18:42;;;;;;;10.20;5.10;;;;;;;14.41;83.68;100020.98;109286;1253;72677;-66
2023/09/17 02:21:28;;;;;;;12.10;4.90;;;;;;;14.40;83.55;100019.45;109459;1256;59336;-66
2023/09/17 02:24:14;;;;;;;10.10;4.90;;;;;;;14.38;83.83;100021.14;109424;1252;58785;-66
2023/09/17 02:27:02;;;;;;;10.20;4.30;;;;;;;14.35;83.80;100019.61;109560;1253;71866;-65
2023/09/17 02:29:50;;;;;;;11.10;4.60;;;;;;;14.31;83.69;100015.64;109749;1253;67603;-64
2023/09/17 02:32:37;;;;;;;13.20;5.10;;;;;;;14.27;83.82;100015.30;109654;1252;72688;-65
2023/09/17 02:35:24;;;;;;;10.20;4.30;;;;;;;14.24;83.98;100013.48;109589;1252;59056;-66
2023/09/17 02:38:10;;;;;;;11.10;4.80;;;;;;;14.20;84.43;100013.28;109440;1254;61055;-66
2023/09/17 02:40:57;;;;;;;12.00;5.10;;;;;;;14.18;84.68;100009.59;109531;1252;70800;-66
2023/09/17 02:43:43;;;;;;;10.60;4.70;;;;;;;14.14;85.17;100006.93;109439;1253;65438;-64
2023/09/17 02:46:29;;;;;;;10.90;5.00;;;;;;;14.11;85.29;100005.79;109317;1252;73549;-65
2023/09/17 02:49:16;;;;;;;10.40;4.70;;;;;;;14.09;85.34;100004.71;109474;1252;58170;-65
2023/09/17 02:52:04;;;;;;;9.20;4.60;;;;;;;14.07;85.46;100001.84;109477;1252;60464;-67
2023/09/17 02:54:50;;;;;;;11.30;5.10;;;;;;;14.05;85.68;100004.23;109583;1252;73235;-65
2023/09/17 02:57:37;;;;;;;13.20;5.20;;;;;;;14.00;86.08;100002.68;109557;1252;66927;-65
2023/09/17 03:00:25;;;;;;;11.70;5.00;;;;;;;13.98;86.00;100002.00;109366;1254;72694;-66
2023/09/17 03:03:11;;;;;;;11.10;5.00;;;;;;;13.96;86.62;100000.23;109543;1254;58157;-68
2023/09/17 03:05:59;;;;;;;11.40;5.10;;;;;;;13.96;86.92;100002.70;109598;1252;59731;-66
2023/09/17 03:08:46;;;;;;;12.30;5.40;;;;;;;13.97;86.90;99998.68;109498;1252;73081;-68
2023/09/17 03:11:32;;;;;;;10.10;4.80;;;;;;;13.98;87.55;100000.39;109473;1254;68101;-68
2023/09/17 03:14:20;;;;;;;12.50;5.40;;;;;;;13.98;87.38;99998.42;109363;1252;71802;-67
2023/09/17 03:17:07;;;;;;;14.10;5.50;;;;;;;13.98;87.33;99995.80;109528;1252;58328;-65
2023/09/17 03:19:53;;;;;;;12.00;5.10;;;;;;;13.98;87.16;99995.60;109388;1253;59016;-66
2023/09/17 03:22:41;;;;;;;11.00;5.00;;;;;;;13.98;88.01;99996.88;109298;1253;73982;-69
2023/09/17 03:25:27;;;;;;;10.90;5.00;;;;;;;13.98;87.54;99994.84;109396;1254;68748;-68
2023/09/17 03:28:13;;;;;;;10.60;5.40;;;;;;;13.98;87.49;99989.88;109435;1252;71592;-67
2023/09/17 03:31:01;;;;;;;12.30;6.10;;;;;;;13.94;87.99;99988.27;109430;1252;60460;-68
2023/09/17 03:33:48;;;;;;;11.70;5.40;;;;;;;13.90;88.06;99983.61;109389;1253;60195;-67
2023/09/17 03:36:37;;;;;;;11.20;5.60;;;;;;;13.87;88.03;99979.27;109277;1252;71859;-66
2023/09/17 03:39:25;;;;;;;13.70;5.90;;;;;;;13.85;88.30;99985.36;109384;1252;68035;-65
2023/09/17 03:42:12;;;;;;;12.80;6.30;;;;;;;13.83;88.57;99983.80;109266;1252;72569;-66
2023/09/17 03:44:58;;;;;;;13.10;5.20;;;;;;;13.81;88.41;99984.11;109270;1253;57388;-68
2023/09/17 03:47:45;;;;;;;11.10;5.30;;;;;;;13.79;88.71;99977.91;109333;1253;60326;-67
2023/09/17 03:50:32;;;;;;;10.90;5.60;;;;;;;13.76;89.32;99976.16;109396;1253;71590;-67
2023/09/17 03:53:19;;;;;;;14.00;6.00;;;;;;;13.75;89.39;99974.52;109312;1252;67898;-69
2023/09/17 03:56:06;;;;;;;13.40;6.70;;;;;;;13.73;89.70;99969.48;109367;1252;72313;-68
2023/09/17 03:58:53;;;;;;;13.50;6.60;;;;;;;13.73;89.77;99972.23;109490;1253;57802;-67
2023/09/17 04:01:39;;;;;;;14.10;6.50;;;;;;;13.71;90.12;99973.64;109416;1252;60308;-70
2023/09/17 04:04:26;;;;;;;13.60;6.00;;;;;;;13.69;90.47;99970.60;109500;1253;72767;-66
2023/09/17 04:07:14;;;;;;;12.40;6.00;;;;;;;13.67;90.79;99970.41;109058;1257;68936;-68
2023/09/17 04:10:02;;;;;;;14.20;6.00;;;;;;;13.67;90.67;99972.92;109019;1257;72441;-66
2023/09/17 04:12:49;;;;;;;13.20;6.30;;;;;;;13.67;91.06;99970.80;109062;1257;59557;-66
2023/09/17 04:15:36;;;;;;;10.70;5.00;;;;;;;13.66;91.21;99970.02;109016;1258;58292;-67
2023/09/17 04:18:23;;;;;;;12.00;6.10;;;;;;;13.70;91.07;99979.28;109123;1257;71707;-68
2023/09/17 04:21:09;;;;;;;13.20;6.40;;;;;;;13.70;91.18;99978.34;109093;1257;67835;-68
2023/09/17 04:23:56;;;;;;;14.60;6.90;;;;;;;13.70;91.39;99977.98;109045;1257;72548;-68
2023/09/17 04:26:45;;;;;;;15.10;6.80;;;;;;;13.71;92.12;99977.72;109065;1257;60419;-67
2023/09/17 04:29:31;;;;;;;13.50;5.80;;;;;;;13.73;91.81;99975.52;109099;1257;58822;-69
2023/09/17 04:32:18;;;;;;;12.80;6.30;;;;;;;13.76;91.92;99977.97;109119;1257;73072;-68
2023/09/17 04:35:07;;;;;;;13.10;6.40;;;;;;;13.78;91.73;99984.59;109073;1257;69174;-67
2023/09/17 04:37:53;;;;;;;13.10;6.40;;;;;;;13.81;91.77;99984.88;109005;1252;206434;-67
2023/09/17 04:40:46;;;;;;;13.00;6.40;;;;;;;13.83;91.97;99987.55;109279;1253;57292;-69
2023/09/17 04:43:33;;;;;;;15.70;7.10;;;;;;;13.81;91.88;99980.77;109456;1252;59151;-68
2023/09/17 04:46:20;;;;;;;13.10;6.50;;;;;;;13.88;92.06;99987.45;109480;1253;71742;-72
2023/09/17 04:49:11;;;;;;;15.00;7.10;;;;;;;13.90;92.20;99988.59;109573;1253;67637;-68
2023/09/17 04:51:57;;;;;;;12.10;6.40;;;;;;;13.94;91.67;99990.23;109438;1252;72598;-70
2023/09/17 04:54:45;;;;;;;12.10;6.20;;;;;;;13.95;91.78;99991.23;109394;1252;59662;-68
2023/09/17 04:57:31;;;;;;;13.80;6.20;;;;;;;14.01;91.92;99997.74;109404;1252;61384;-67
2023/09/17 05:00:20;;;;;;;16.70;7.60;;;;;;;14.07;91.88;100000.97;109510;1253;72778;-67
2023/09/17 05:03:07;;;;;;;12.80;6.90;;;;;;;14.12;91.43;100004.06;109597;1253;67677;-66
2023/09/17 05:05:53;;;;;;;13.50;6.80;;;;;;;14.17;91.44;100011.27;109274;1253;71234;-66
2023/09/17 05:08:41;;;;;;;13.20;6.50;;;;;;;14.23;90.85;100016.77;109296;1253;59519;-68
2023/09/17 05:11:27;;;;;;;13.70;7.00;;;;;;;14.28;90.76;100017.89;109356;1253;58908;-65
2023/09/17 05:14:13;;;;;;;15.70;7.50;;;;;;;14.33;90.62;100021.76;109461;1253;73056;-66
2023/09/17 05:17:00;;;;;;;14.00;6.80;;;;;;;14.38;90.25;100024.12;109496;1253;67041;-67
2023/09/17 05:19:46;;;;;;;14.10;7.40;;;;;;;14.43;89.82;100028.27;109494;1253;71135;-67
2023/09/17 05:22:34;;;;;;;13.40;7.20;;;;;;;14.48;89.53;100031.59;109472;1255;57300;-67
2023/09/17 05:25:21;;;;;;;15.70;7.70;;;;;;;14.52;89.54;100032.14;109539;1253;60030;-65
2023/09/17 05:28:07;;;;;;;14.60;7.90;;;;;;;14.55;89.24;100030.92;109273;1253;71758;-66
2023/09/17 05:30:57;;;;;;;14.70;7.70;;;;;;;14.58;89.21;100031.72;109314;1253;66656;-68
2023/09/17 05:33:43;;;;;;;13.70;6.40;;;;;;;14.60;89.01;100025.43;109318;1253;73289;-67
2023/09/17 05:36:30;;;;;;;13.50;6.90;;;;;;;14.69;88.76;100036.96;109278;1253;59399;-67
2023/09/17 05:39:16;;;;;;;13.70;6.40;;;;;;;14.74;88.83;100031.67;109318;1253;59284;-68
2023/09/17 05:42:03;;;;;;;15.00;7.60;;;;;;;14.77;88.55;100031.90;109482;1252;71858;-65
2023/09/17 05:44:50;;;;;;;15.40;7.30;;;;;;;14.82;88.73;100034.33;109536;1253;67884;-67
2023/09/17 05:47:37;;;;;;;14.00;7.50;;;;;;;14.89;88.27;100041.71;109304;1252;72923;-66
2023/09/17 05:50:24;;;;;;;19.30;8.40;;;;;;;14.96;87.94;100044.21;109321;1252;59420;-70
2023/09/17 05:53:10;;;;;;;12.70;7.00;;;;;;;15.05;87.58;100041.41;109533;1253;60266;-66
2023/09/17 05:55:57;;;;;;;16.30;7.40;;;;;;;15.13;87.26;100046.33;109344;1252;71641;-65
2023/09/17 05:58:44;;;;;;;14.90;8.10;;;;;;;15.20;86.90;100044.77;109383;1253;67697;-66
2023/09/17 06:01:31;;;;;;;14.30;7.50;;;;;;;15.27;86.51;100047.81;109289;1253;71190;-69
2023/09/17 06:04:18;;;;;;;15.00;7.60;;;;;;;15.35;86.50;100044.17;109278;1253;59448;-68
2023/09/17 06:07:04;;;;;;;16.10;8.10;;;;;;;15.46;86.07;100048.33;109424;1253;60421;-69
2023/09/17 06:09:51;;;;;;;13.90;7.50;;;;;;;15.54;85.61;100052.52;109545;1253;72939;-69
2023/09/17 06:12:37;;;;;;;17.20;7.90;;;;;;;15.62;85.19;100059.40;109289;1252;68988;-67
2023/09/17 06:15:25;;;;;;;16.80;8.60;;;;;;;15.71;84.85;100058.58;109347;1253;73607;-66
2023/09/17 06:18:13;;;;;;;15.50;8.70;;;;;;;15.81;84.48;100063.30;109362;1253;59435;-69
2023/09/17 06:21:00;;;;;;;16.80;8.50;;;;;;;15.96;83.97;100063.27;109315;1253;60277;-69
2023/09/17 06:23:46;;;;;;;14.60;8.10;;;;;;;16.16;83.09;100066.79;109466;1253;74018;-67
2023/09/17 06:26:33;;;;;;;15.20;8.30;;;;;;;16.54;81.87;100062.59;109522;1253;66668;-65
2023/09/17 06:29:19;;;;;;;15.20;8.20;;;;;;;17.47;79.68;100055.96;109427;1252;71504;-68
2023/09/17 06:32:05;;;;;;;16.00;7.70;;;;;;;18.99;74.92;100054.89;109260;1253;60644;-66
2023/09/17 06:34:52;;;;;;;14.20;8.00;;;;;;;20.58;69.52;100055.70;109338;1253;60055;-68
2023/09/17 06:37:39;;;;;;;14.40;8.20;;;;;;;22.12;62.12;100044.30;109293;1252;72901;-69
2023/09/17 06:40:25;;;;;;;15.20;8.20;;;;;;;23.31;57.89;100039.59;109310;1253;67858;-69
2023/09/17 06:43:13;;;;;;;14.60;7.10;;;;;;;24.34;54.47;100039.70;109450;1252;72277;-68
2023/09/17 06:45:59;;;;;;;13.10;7.10;;;;;;;25.40;51.23;100042.49;109493;1253;57682;-69
2023/09/17 06:48:46;;;;;;;13.20;6.90;;;;;;;26.23;48.29;100039.36;109524;1254;61351;-69
2023/09/17 06:51:32;;;;;;;13.00;7.20;;;;;;;26.87;47.23;100042.22;109462;1252;72808;-70
2023/09/17 06:54:19;;;;;;;13.20;7.30;;;;;;;27.93;45.52;100045.59;109559;1254;67867;-67
2023/09/17 06:57:05;;;;;;;14.60;6.70;;;;;;;28.80;41.90;100050.89;109468;1252;72412;-67
2023/09/17 06:59:52;;;;;;;12.70;6.60;;;;;;;29.58;40.20;100046.46;109587;1252;57402;-69
2023/09/17 07:02:38;;;;;;;11.30;6.70;;;;;;;30.17;38.42;100051.14;109591;1253;61604;-68
2023/09/17 07:05:24;;;;;;;13.50;7.10;;;;;;;30.60;37.24;100047.60;109553;1253;71639;-70
2023/09/17 07:08:10;;;;;;;14.30;6.90;;;;;;;30.96;36.13;100049.63;109563;1252;66955;-68
2023/09/17 07:10:57;;;;;;;11.60;6.60;;;;;;;31.04;35.04;100050.02;109343;1253;72834;-68
2023/09/17 07:13:43;;;;;;;12.30;6.60;;;;;;;31.11;34.77;100053.41;109526;1252;58965;-71
2023/09/17 07:16:30;;;;;;;12.40;6.60;;;;;;;31.16;35.04;100055.84;109554;1252;60237;-69
2023/09/17 07:19:16;;;;;;;10.60;6.20;;;;;;;31.61;34.97;100060.42;109616;1252;72491;-70
2023/09/17 07:22:03;;;;;;;11.50;6.00;;;;;;;32.22;34.33;100058.02;109434;1256;67691;-67
2023/09/17 07:24:55;;;;;;;10.50;5.90;;;;;;;32.76;33.08;100059.00;109464;1253;72714;-69
2023/09/17 07:27:42;;;;;;;13.00;6.10;;;;;;;33.16;32.82;100062.84;109314;1253;57309;-66
2023/09/17 07:30:28;;;;;;;12.90;6.30;;;;;;;33.70;31.96;100064.56;109480;1253;58761;-67
2023/09/17 07:33:14;;;;;;;10.80;5.60;;;;;;;34.11;30.76;100065.21;109522;1252;71670;-68
2023/09/17 07:36:00;;;;;;;10.40;5.30;;;;;;;34.49;29.96;100065.36;109453;1253;67600;-68
2023/09/17 07:38:47;;;;;;;10.70;5.20;;;;;;;34.82;29.81;100066.13;109363;1253;72867;-66
2023/09/17 07:41:33;;;;;;;10.50;5.40;;;;;;;35.02;29.28;100061.10;109327;1252;58677;-68
2023/09/17 07:44:20;;;;;;;10.00;5.40;;;;;;;35.28;29.01;100063.20;109512;1252;59856;-69
2023/09/17 07:47:09;;;;;;;10.00;4.90;;;;;;;35.51;28.63;100067.56;109369;1253;73770;-68
2023/09/17 07:49:55;;;;;;;9.60;5.10;;;;;;;35.80;28.03;100064.11;109476;1252;66398;-67
2023/09/17 07:52:42;;;;;;;11.30;5.50;;;;;;;36.01;27.77;100066.86;109191;1253;72516;-70
2023/09/17 07:55:29;;;;;;;10.50;4.80;;;;;;;36.31;27.30;100065.27;109509;1252;57679;-71
2023/09/17 07:58:15;;;;;;;10.00;4.80;;;;;;;36.65;26.52;100068.54;109302;1252;59493;-68
2023/09/17 08:01:06;;;;;;;9.20;4.60;;;;;;;36.94;25.71;100067.29;109529;1252;73827;-68
2023/09/17 08:03:52;;;;;;;9.80;4.60;;;;;;;37.16;25.60;100064.59;109519;1252;68634;-68
2023/09/17 08:06:40;;;;;;;9.50;4.40;;;;;;;37.35;25.19;100064.25;109472;1253;72387;-69
2023/09/17 08:09:27;;;;;;;7.70;3.90;;;;;;;37.53;25.10;100062.14;109294;1253;57766;-67
2023/09/17 08:12:15;;;;;;;8.80;4.10;;;;;;;37.91;24.28;100063.20;109542;1253;58944;-68
2023/09/17 08:15:02;;;;;;;8.30;4.00;;;;;;;38.25;23.93;100070.27;109504;1253;72842;-66
2023/09/17 08:17:48;;;;;;;10.90;3.90;;;;;;;38.50;23.09;100074.03;109304;1253;66586;-68
2023/09/17 08:20:34;;;;;;;9.80;3.90;;;;;;;38.71;22.68;100073.04;109326;1253;71841;-66
2023/09/17 08:23:21;;;;;;;8.70;3.90;;;;;;;38.79;22.41;100069.96;109345;1252;57921;-64
2023/09/17 08:26:09;;;;;;;11.60;3.90;;;;;;;38.88;22.28;100064.31;109565;1256;58806;-66
2023/09/17 08:28:56;;;;;;;10.20;3.90;;;;;;;38.79;22.18;100063.27;109572;1253;72747;-69
2023/09/17 08:31:43;;;;;;;9.80;4.20;;;;;;;38.97;22.09;100059.63;109404;1253;67904;-66
2023/09/17 08:34:29;;;;;;;9.40;4.00;;;;;;;39.06;22.26;100066.35;109520;1254;71731;-66
2023/09/17 08:37:17;;;;;;;13.20;5.00;;;;;;;39.14;21.93;100068.59;109410;1253;57858;-64
2023/09/17 08:40:13;;;;;;;9.60;4.60;;;;;;;39.28;22.01;100063.98;109531;1252;60107;-66
2023/09/17 08:43:02;;;;;;;8.60;3.80;;;;;;;39.46;21.57;100064.38;109269;1253;71703;-66
2023/09/17 08:45:50;;;;;;;8.50;3.60;;;;;;;39.49;21.40;100064.54;109590;1253;67809;-69
2023/09/17 08:48:37;;;;;;;8.70;3.80;;;;;;;39.71;21.35;100066.23;109522;1254;72823;-65
2023/09/17 08:51:26;;;;;;;9.20;4.00;;;;;;;39.88;21.16;100067.69;109501;1254;59002;-66
2023/09/17 08:54:48;;;;;;;8.90;3.60;;;;;;;39.99;21.11;100060.96;109412;1253;59044;-67
2023/09/17 08:57:53;;;;;;;9.00;3.80;;;;;;;39.78;21.23;100062.77;109504;1252;71590;-65
2023/09/17 09:00:44;;;;;;;10.30;3.90;;;;;;;39.88;20.60;100060.77;109356;1254;68788;-67
2023/09/17 09:03:34;;;;;;;9.80;3.50;;;;;;;39.79;20.98;100062.34;109527;1254;72399;-68
2023/09/17 09:06:27;;;;;;;8.80;3.40;;;;;;;39.84;20.86;100058.61;109318;1252;57344;-67
2023/09/17 09:09:16;;;;;;;9.00;3.90;;;;;;;39.65;20.61;100060.44;109524;1253;60343;-67
2023/09/17 09:12:03;;;;;;;8.30;4.00;;;;;;;39.67;21.11;100064.09;109526;1254;72961;-67
2023/09/17 09:14:50;;;;;;;8.30;4.10;;;;;;;39.80;20.75;100060.97;109563;1253;66544;-66
2023/09/17 09:17:40;;;;;;;9.30;4.20;;;;;;;39.94;20.80;100054.91;109271;1254;72529;-66
2023/09/17 09:20:27;;;;;;;11.00;4.10;;;;;;;40.21;20.74;100056.52;109381;1252;58738;-67
2023/09/17 09:23:13;;;;;;;10.10;4.40;;;;;;;40.45;20.02;100057.77;109532;1253;61047;-70
2023/09/17 09:25:59;;;;;;;11.30;4.20;;;;;;;40.15;20.41;100053.67;109484;1253;72683;-68
2023/09/17 09:28:46;;;;;;;8.40;4.00;;;;;;;40.03;20.90;100056.64;109285;1253;69197;-66
2023/09/17 09:31:34;;;;;;;8.00;3.90;;;;;;;40.06;21.02;100058.74;109429;1252;72702;-68
2023/09/17 09:34:20;;;;;;;7.80;3.80;;;;;;;40.08;20.41;100057.69;109476;1256;57649;-67
2023/09/17 09:37:08;;;;;;;10.60;3.90;;;;;;;39.93;20.44;100057.27;109165;1253;61367;-69
2023/09/17 09:39:55;;;;;;;7.80;3.90;;;;;;;40.06;20.45;100058.69;109504;1253;74046;-70
2023/09/17 09:42:46;;;;;;;9.00;3.80;;;;;;;39.89;20.77;100058.52;109351;1253;67768;-68
2023/09/17 09:45:33;;;;;;;9.10;4.30;;;;;;;39.89;20.77;100055.92;109276;1253;72383;-68
2023/09/17 09:48:20;;;;;;;8.50;3.70;;;;;;;40.46;20.45;100059.28;109445;1252;57303;-72
2023/09/17 09:51:07;;;;;;;9.10;4.20;;;;;;;40.74;19.72;100058.55;109547;1253;60164;-71
2023/09/17 09:53:55;;;;;;;10.10;4.10;;;;;;;40.82;19.78;100056.73;109553;1253;73075;-70
2023/09/17 09:56:41;;;;;;;9.30;4.20;;;;;;;40.79;19.94;100056.67;109359;1253;68655;-67
2023/09/17 09:59:28;;;;;;;7.90;3.40;;;;;;;40.96;19.47;100056.31;109505;1253;72436;-73
2023/09/17 10:02:16;;;;;;;10.60;4.00;;;;;;;41.24;19.02;100058.28;109385;1258;57982;-69
2023/09/17 10:05:04;;;;;;;9.70;3.50;;;;;;;41.43;18.79;100053.05;109542;1252;61974;-67
2023/09/17 10:07:50;;;;;;;10.20;4.10;;;;;;;41.42;18.89;100052.61;109214;1253;73067;-69
2023/09/17 10:10:37;;;;;;;8.80;3.70;;;;;;;41.36;18.97;100055.52;109465;1253;67621;-69
2023/09/17 10:13:24;;;;;;;8.20;3.60;;;;;;;41.32;18.54;100053.57;109305;1252;72631;-69
2023/09/17 10:16:12;;;;;;;8.00;3.50;;;;;;;41.07;18.58;100053.63;109217;1253;57921;-69
2023/09/17 10:19:00;;;;;;;8.90;3.60;;;;;;;40.97;19.00;100054.05;109351;1253;60209;-69
2023/09/17 10:21:48;;;;;;;8.60;3.60;;;;;;;40.75;19.15;100055.41;109365;1254;74310;-68
2023/09/17 10:24:38;;;;;;;9.40;3.90;;;;;;;40.68;19.69;100058.52;109529;1254;67746;-69
2023/09/17 10:27:25;;;;;;;10.10;4.10;;;;;;;40.58;19.45;100054.36;109562;1254;72191;-70
2023/09/17 10:30:16;;;;;;;11.90;4.80;;;;;;;40.41;19.59;100053.38;109384;1253;58128;-69
2023/09/17 10:33:04;;;;;;;10.40;4.60;;;;;;;40.50;19.78;100054.82;109412;1254;61173;-69
2023/09/17 10:35:51;;;;;;;10.80;4.50;;;;;;;40.53;19.32;100056.08;109268;1254;73391;-68
2023/09/17 10:38:39;;;;;;;10.80;4.40;;;;;;;40.48;19.44;100054.92;109411;1254;68830;-68
2023/09/17 10:41:32;;;;;;;9.00;4.20;;;;;;;40.49;19.80;100057.70;109360;1254;72380;-69
2023/09/17 10:44:20;;;;;;;9.60;3.90;;;;;;;40.39;20.09;100058.56;109504;1252;57438;-66
2023/09/17 10:47:11;;;;;;;11.10;4.40;;;;;;;40.21;20.03;100053.52;109571;1254;60047;-67
2023/09/17 10:49:57;;;;;;;9.90;5.70;;;;;;;39.92;20.60;100059.07;109275;1254;73375;-69
2023/09/17 10:52:44;;;;;;;9.30;5.30;;;;;;;39.54;20.99;100057.02;109627;1253;67584;-68
2023/09/17 10:55:36;;;;;;;12.30;4.50;;;;;;;39.10;21.38;100057.36;109396;1253;71482;-69
2023/09/17 10:58:37;;;;;;;9.80;4.00;;;;;;;38.44;21.69;100058.73;109252;1253;57321;-65
2023/09/17 11:01:32;;;;;;;11.50;4.20;;;;;;;38.05;22.42;100067.58;109513;1252;60234;-68
2023/09/17 11:04:22;;;;;;;8.50;4.00;;;;;;;37.91;22.58;100065.70;109346;1254;73644;-68
2023/09/17 11:07:09;;;;;;;9.60;4.20;;;;;;;37.79;22.69;100066.50;109403;1254;66563;-68
2023/09/17 11:09:58;;;;;;;8.80;4.10;;;;;;;37.68;22.87;100063.94;109402;1254;71497;-67
2023/09/17 11:12:44;;;;;;;8.70;4.30;;;;;;;37.43;22.88;100067.78;109569;1253;57397;-69
2023/09/17 11:15:31;;;;;;;8.70;4.50;;;;;;;37.09;23.27;100064.11;109439;1253;60052;-68
2023/09/17 11:18:17;;;;;;;9.00;3.90;;;;;;;36.92;23.79;100060.88;109401;1254;73170;-70
2023/09/17 11:21:09;;;;;;;8.70;4.50;;;;;;;36.76;23.98;100066.33;109668;1254;67850;-68
2023/09/17 11:23:56;;;;;;;9.90;4.40;;;;;;;36.40;23.98;100065.36;109398;1254;72435;-67
2023/09/17 11:26:45;;;;;;;8.30;3.90;;;;;;;36.00;24.76;100067.41;109501;1254;57287;-69
2023/09/17 11:29:43;;;;;;;10.20;4.50;;;;;;;35.72;25.12;100067.98;109618;1254;59129;-68
2023/09/17 11:32:30;;;;;;;9.60;4.60;;;;;;;35.48;25.81;100071.18;109439;1254;71662;-67
2023/09/17 11:35:20;;;;;;;8.50;4.30;;;;;;;35.29;26.16;100070.89;109426;1254;68301;-69
2023/09/17 11:38:07;;;;;;;10.50;4.30;;;;;;;35.20;26.45;100068.92;109279;1254;73738;-70
2023/09/17 11:41:11;;;;;;;13.50;4.40;;;;;;;35.00;26.74;100075.86;109265;1254;57707;-67
2023/09/17 11:43:58;;;;;;;8.60;4.40;;;;;;;34.61;27.17;100073.41;109227;1253;61331;-66
2023/09/17 11:46:44;;;;;;;9.80;4.40;;;;;;;34.23;27.59;100076.70;109243;1254;71585;-64
2023/09/17 11:49:32;;;;;;;9.60;4.20;;;;;;;33.97;27.84;100080.55;109276;1254;66350;-69
2023/09/17 11:52:19;;;;;;;10.10;4.40;;;;;;;33.57;28.48;100074.61;109421;1254;72564;-66
2023/09/17 11:55:12;;;;;;;9.50;4.40;;;;;;;33.22;28.72;100076.16;109289;1254;57313;-66
2023/09/17 11:58:14;;;;;;;9.30;4.60;;;;;;;32.90;29.46;100075.27;109433;1254;59986;-66
2023/09/17 12:01:07;;;;;;;11.50;5.10;;;;;;;32.78;29.75;100076.66;109410;1254;73103;-66
2023/09/17 12:03:54;;;;;;;10.40;4.60;;;;;;;32.62;30.07;100082.55;109425;1254;68730;-63
2023/09/17 12:06:48;;;;;;;11.10;4.60;;;;;;;32.33;30.45;100082.66;109406;1254;73645;-64
2023/09/17 12:09:56;;;;;;;10.70;4.40;;;;;;;32.01;31.30;100082.82;109457;1254;57607;-65
2023/09/17 12:12:43;;;;;;;11.20;4.70;;;;;;;31.59;31.84;100084.59;109301;1254;60139;-67
2023/09/17 12:15:30;;;;;;;9.30;4.80;;;;;;;31.01;32.77;100083.92;109242;1254;73865;-64
2023/09/17 12:18:17;;;;;;;11.10;5.20;;;;;;;30.44;33.94;100085.98;109277;1254;66656;-63
2023/09/17 12:21:09;;;;;;;15.00;5.30;;;;;;;29.87;34.86;100089.47;109159;1254;71782;-63
2023/09/17 12:24:05;;;;;;;10.80;5.50;;;;;;;29.31;35.77;100089.73;109473;1254;58010;-65
2023/09/17 12:27:09;;;;;;;10.80;5.70;;;;;;;28.66;37.04;100086.19;109374;1253;61303;-62
2023/09/17 12:29:58;;;;;;;11.90;5.30;;;;;;;28.13;38.26;100086.24;109332;1254;73876;-63
2023/09/17 12:32:44;;;;;;;14.20;5.70;;;;;;;27.78;39.35;100092.00;109526;1253;68927;-65
2023/09/17 12:35:31;;;;;;;12.60;5.50;;;;;;;27.41;40.64;100086.91;109414;1254;71455;-65
2023/09/17 12:38:17;;;;;;;12.20;5.40;;;;;;;27.14;41.31;100088.89;109408;1254;57984;-63
2023/09/17 12:41:03;;;;;;;14.10;6.20;;;;;;;26.82;42.14;100086.14;109228;1254;59086;-64
2023/09/17 12:43:50;;;;;;;11.00;5.50;;;;;;;26.55;42.90;100085.83;109438;1254;73080;-65
2023/09/17 12:46:38;;;;;;;13.90;6.10;;;;;;;26.35;43.57;100082.23;109417;1254;67710;-66